createdAt,value
2022-12-22T00:02:07.959Z,26.35
2022-12-22T00:04:53.827Z,25.13
2022-12-22T00:07:39.906Z,25.27
2022-12-22T00:10:27.222Z,25.58
2022-12-22T00:13:13.118Z,25.38
2022-12-22T00:15:58.982Z,26.25
2022-12-22T00:18:45.707Z,27.63
2022-12-22T00:21:32.270Z,24.80
2022-12-22T00:24:18.075Z,25.38
2022-12-22T00:27:06.446Z,26.20
2022-12-22T00:30:01.638Z,25.65
2022-12-22T00:32:52.000Z,23.70
2022-12-22T00:35:41.326Z,23.85
2022-12-22T00:38:37.059Z,25.00
2022-12-22T00:41:23.461Z,24.63
2022-12-22T00:44:09.897Z,25.45
2022-12-22T00:47:06.886Z,23.98
2022-12-22T00:49:54.484Z,23.52
2022-12-22T00:52:42.526Z,24.25
2022-12-22T00:55:38.584Z,25.15
2022-12-22T00:58:31.747Z,23.65
2022-12-22T01:01:17.619Z,22.42
2022-12-22T01:04:03.557Z,22.42
2022-12-22T01:06:52.817Z,22.52
2022-12-22T01:09:39.987Z,22.25
2022-12-22T01:12:36.996Z,22.67
2022-12-22T01:15:28.427Z,22.35
2022-12-22T01:18:13.848Z,23.50
2022-12-22T01:20:59.763Z,23.10
2022-12-22T01:23:46.404Z,22.38
2022-12-22T01:26:32.165Z,23.80
2022-12-22T01:29:18.229Z,21.65
2022-12-22T01:32:04.240Z,21.00
2022-12-22T01:34:49.904Z,22.25
2022-12-22T01:37:36.299Z,22.35
2022-12-22T01:40:22.355Z,22.95
2022-12-22T01:43:08.315Z,22.20
2022-12-22T01:45:56.928Z,22.38
2022-12-22T01:48:50.543Z,23.25
2022-12-22T01:51:43.916Z,21.98
2022-12-22T01:54:31.357Z,24.05
2022-12-22T01:57:17.713Z,23.30
2022-12-22T02:00:03.657Z,23.17
2022-12-22T02:02:51.319Z,24.80
2022-12-22T02:05:38.260Z,23.40
2022-12-22T02:08:38.786Z,24.25
2022-12-22T02:11:51.690Z,25.48
2022-12-22T02:14:47.200Z,24.67
2022-12-22T02:18:02.169Z,24.98
2022-12-22T02:24:19.333Z,21.90
2022-12-22T02:27:08.661Z,23.15
2022-12-22T02:29:59.781Z,23.33
2022-12-22T02:32:45.826Z,23.95
2022-12-22T02:35:34.708Z,23.58
2022-12-22T02:38:20.115Z,21.95
2022-12-22T02:41:14.939Z,23.63
2022-12-22T02:44:31.486Z,24.23
2022-12-22T02:47:38.862Z,22.30
2022-12-22T02:50:58.873Z,23.02
2022-12-22T02:53:47.411Z,23.33
2022-12-22T02:56:32.966Z,23.00
2022-12-22T02:59:18.487Z,22.70
2022-12-22T03:02:06.850Z,21.70
2022-12-22T03:04:52.199Z,20.83
2022-12-22T03:07:38.221Z,21.13
2022-12-22T03:10:24.182Z,21.33
2022-12-22T03:13:10.240Z,20.92
2022-12-22T03:15:55.982Z,21.00
2022-12-22T03:18:41.986Z,20.05
2022-12-22T03:21:27.842Z,21.10
2022-12-22T03:24:13.715Z,20.83
2022-12-22T03:26:41.252Z,19.65
2022-12-22T03:29:08.376Z,22.05
2022-12-22T03:31:35.923Z,20.45
2022-12-22T03:34:03.131Z,21.10
2022-12-22T03:36:30.165Z,20.27
2022-12-22T03:38:57.208Z,19.98
2022-12-22T03:41:43.207Z,22.00
2022-12-22T03:44:28.934Z,22.33
2022-12-22T03:46:56.109Z,22.70
2022-12-22T03:49:23.314Z,23.35
2022-12-22T03:51:51.952Z,22.40
2022-12-22T03:54:21.674Z,23.17
2022-12-22T03:56:49.484Z,21.73
2022-12-22T03:59:18.037Z,23.58
2022-12-22T04:01:47.974Z,23.50
2022-12-22T04:04:17.013Z,24.23
2022-12-22T04:06:44.482Z,23.13
2022-12-22T04:09:11.855Z,22.70
2022-12-22T04:11:58.027Z,23.27
2022-12-22T04:14:33.099Z,22.52
2022-12-22T04:17:02.237Z,25.98
2022-12-22T04:19:29.818Z,24.17
2022-12-22T04:21:57.063Z,23.70
2022-12-22T04:24:24.256Z,23.02
2022-12-22T04:26:51.550Z,24.20
2022-12-22T04:29:18.674Z,23.92
2022-12-22T04:31:45.790Z,25.98
2022-12-22T04:34:12.818Z,24.42
2022-12-22T04:36:40.199Z,24.38
2022-12-22T04:39:07.704Z,25.00
2022-12-22T04:41:34.865Z,25.52
2022-12-22T04:44:02.397Z,25.13
2022-12-22T04:46:29.629Z,23.85
2022-12-22T04:49:00.230Z,24.35
2022-12-22T04:51:28.339Z,25.52
2022-12-22T04:53:55.660Z,25.80
2022-12-22T04:56:22.770Z,25.45
2022-12-22T04:58:49.914Z,26.38
2022-12-22T05:01:19.085Z,25.38
2022-12-22T05:03:47.019Z,26.70
2022-12-22T05:06:14.534Z,24.63
2022-12-22T05:08:42.253Z,24.13
2022-12-22T05:11:10.101Z,23.40
2022-12-22T05:13:37.726Z,25.40
2022-12-22T05:16:07.671Z,25.90
2022-12-22T05:18:36.122Z,25.23
2022-12-22T05:21:07.773Z,24.17
2022-12-22T05:23:35.020Z,23.33
2022-12-22T05:26:02.572Z,24.40
2022-12-22T05:28:29.724Z,22.33
2022-12-22T05:30:56.879Z,24.08
2022-12-22T05:33:23.984Z,22.75
2022-12-22T05:35:51.031Z,20.90
2022-12-22T05:38:18.171Z,21.98
2022-12-22T05:40:45.329Z,22.88
2022-12-22T05:43:12.413Z,18.98
2022-12-22T05:45:39.512Z,20.98
2022-12-22T05:48:07.625Z,20.80
2022-12-22T05:50:34.954Z,19.83
2022-12-22T05:53:02.778Z,20.05
2022-12-22T05:55:29.887Z,19.25
2022-12-22T05:57:57.068Z,20.15
2022-12-22T06:00:24.132Z,20.80
2022-12-22T06:02:51.373Z,20.42
2022-12-22T06:05:18.469Z,20.23
2022-12-22T06:07:45.540Z,21.33
2022-12-22T06:10:13.981Z,21.17
2022-12-22T06:12:42.264Z,22.92
2022-12-22T06:15:12.325Z,23.08
2022-12-22T06:17:45.018Z,21.55
2022-12-22T06:20:14.000Z,20.98
2022-12-22T06:22:41.642Z,22.50
2022-12-22T06:25:12.164Z,24.90
2022-12-22T06:27:42.812Z,22.70
2022-12-22T06:30:11.108Z,24.92
2022-12-22T06:32:38.993Z,24.52
2022-12-22T06:35:10.020Z,25.83
2022-12-22T06:37:37.376Z,26.77
2022-12-22T06:40:07.743Z,25.67
2022-12-22T06:42:53.485Z,28.15
2022-12-22T06:45:20.615Z,28.40
2022-12-22T06:47:47.665Z,28.60
2022-12-22T06:50:14.919Z,28.63
2022-12-22T06:52:42.713Z,32.58
2022-12-22T06:55:10.044Z,30.27
2022-12-22T06:57:37.185Z,27.65
2022-12-22T07:00:06.490Z,31.70
2022-12-22T07:02:33.744Z,33.28
2022-12-22T07:05:00.853Z,31.45
2022-12-22T07:07:28.050Z,32.50
2022-12-22T07:09:55.601Z,30.15
2022-12-22T07:12:23.712Z,28.15
2022-12-22T07:14:50.994Z,28.95
2022-12-22T07:17:18.080Z,28.20
2022-12-22T07:19:45.146Z,27.45
2022-12-22T07:22:12.233Z,29.38
2022-12-22T07:24:39.267Z,28.10
2022-12-22T07:27:08.322Z,24.88
2022-12-22T07:29:37.233Z,26.52
2022-12-22T07:32:04.419Z,26.40
2022-12-22T07:34:31.522Z,28.20
2022-12-22T07:36:58.630Z,28.67
2022-12-22T07:39:25.782Z,27.08
2022-12-22T07:42:11.806Z,25.95
2022-12-22T07:44:38.932Z,26.65
2022-12-22T07:47:06.697Z,25.73
2022-12-22T07:49:52.224Z,27.65
2022-12-22T07:52:19.318Z,27.73
2022-12-22T07:54:46.431Z,27.27
2022-12-22T07:57:13.516Z,25.63
2022-12-22T07:59:41.164Z,26.60
2022-12-22T08:02:13.438Z,25.42
2022-12-22T08:04:41.203Z,23.08
2022-12-22T08:07:08.381Z,22.35
2022-12-22T08:09:36.271Z,18.60
2022-12-22T08:12:03.472Z,18.55
2022-12-22T08:14:30.624Z,20.77
2022-12-22T08:16:58.222Z,19.67
2022-12-22T08:19:25.279Z,20.45
2022-12-22T08:21:53.369Z,20.10
2022-12-22T08:24:21.410Z,22.02
2022-12-22T08:26:52.627Z,19.98
2022-12-22T08:29:24.223Z,18.85
2022-12-22T08:31:51.442Z,16.88
2022-12-22T08:34:18.698Z,18.75
2022-12-22T08:36:55.376Z,19.17
2022-12-22T08:39:25.729Z,18.23
2022-12-22T08:41:53.447Z,17.95
2022-12-22T08:44:28.685Z,16.65
2022-12-22T08:46:57.667Z,16.50
2022-12-22T08:49:25.581Z,18.45
2022-12-22T08:51:53.337Z,17.27
2022-12-22T08:54:21.197Z,18.80
2022-12-22T08:56:49.420Z,18.05
2022-12-22T08:59:17.609Z,16.10
2022-12-22T09:01:48.060Z,16.08
2022-12-22T09:04:18.228Z,18.02
2022-12-22T09:06:45.993Z,16.88
2022-12-22T09:09:14.467Z,14.82
2022-12-22T09:11:41.754Z,15.90
2022-12-22T09:14:11.974Z,16.27
2022-12-22T09:16:40.226Z,16.27
2022-12-22T09:19:08.358Z,20.60
2022-12-22T09:21:35.992Z,17.83
2022-12-22T09:24:04.963Z,13.73
2022-12-22T09:26:32.392Z,14.18
2022-12-22T09:29:00.136Z,12.95
2022-12-22T09:31:28.149Z,12.48
2022-12-22T09:33:55.710Z,13.05
2022-12-22T09:36:27.956Z,11.73
2022-12-22T09:38:55.078Z,14.98
2022-12-22T09:41:36.028Z,13.60
2022-12-22T09:44:24.338Z,14.05
2022-12-22T09:46:55.806Z,12.77
2022-12-22T09:49:23.222Z,12.98
2022-12-22T09:51:57.137Z,12.80
2022-12-22T09:54:25.368Z,11.52
2022-12-22T09:56:52.505Z,11.68
2022-12-22T09:59:21.345Z,10.50
2022-12-22T10:02:24.416Z,10.15
2022-12-22T10:05:07.484Z,9.18
2022-12-22T10:07:39.132Z,10.57
2022-12-22T10:10:07.688Z,9.68
2022-12-22T10:12:34.917Z,9.10
2022-12-22T10:15:01.967Z,9.15
2022-12-22T10:17:31.567Z,11.02
2022-12-22T10:20:17.246Z,11.20
2022-12-22T10:22:51.070Z,10.68
2022-12-22T10:28:29.003Z,9.80
2022-12-22T10:31:14.667Z,10.05
2022-12-22T10:33:47.238Z,11.73
2022-12-22T10:36:27.037Z,11.18
2022-12-22T10:39:07.405Z,10.40
2022-12-22T10:41:44.758Z,9.80
2022-12-22T10:44:23.092Z,10.50
2022-12-22T10:46:53.455Z,10.20
2022-12-22T10:49:25.176Z,10.65
2022-12-22T10:51:55.700Z,10.32
2022-12-22T10:54:49.526Z,9.07
2022-12-22T10:57:16.704Z,10.43
2022-12-22T10:59:54.338Z,10.57
2022-12-22T11:02:21.682Z,8.77
2022-12-22T11:04:50.375Z,10.02
2022-12-22T11:07:18.116Z,8.88
2022-12-22T11:09:45.255Z,9.95
2022-12-22T11:12:49.784Z,9.93
2022-12-22T11:15:29.255Z,8.80
2022-12-22T11:18:11.419Z,8.95
2022-12-22T11:21:24.337Z,9.18
2022-12-22T11:24:21.652Z,8.82
2022-12-22T11:27:16.930Z,9.07
2022-12-22T11:29:58.139Z,9.82
2022-12-22T11:33:16.274Z,9.25
2022-12-22T11:36:01.855Z,8.73
2022-12-22T11:38:41.319Z,10.65
2022-12-22T11:41:50.799Z,10.52
2022-12-22T11:44:43.090Z,9.65
2022-12-22T11:47:19.142Z,9.55
2022-12-22T11:49:52.070Z,8.82
2022-12-22T11:52:38.792Z,9.82
2022-12-22T11:55:35.090Z,9.65
2022-12-22T11:58:18.328Z,9.60
2022-12-22T12:01:22.321Z,9.45
2022-12-22T12:04:14.692Z,9.00
2022-12-22T12:07:07.437Z,8.98
2022-12-22T12:09:43.310Z,8.73
2022-12-22T12:12:36.880Z,7.93
2022-12-22T12:15:03.915Z,9.07
2022-12-22T12:17:43.294Z,9.18
2022-12-22T12:20:45.749Z,8.35
2022-12-22T12:23:24.653Z,7.53
2022-12-22T12:25:55.203Z,5.95
2022-12-22T12:28:25.369Z,5.97
2022-12-22T12:30:59.289Z,5.47
2022-12-22T12:33:48.262Z,5.15
2022-12-22T12:36:27.083Z,4.78
2022-12-22T12:39:26.149Z,4.63
2022-12-22T12:42:20.811Z,4.57
2022-12-22T12:44:48.635Z,3.63
2022-12-22T12:47:36.112Z,4.38
2022-12-22T12:50:32.544Z,5.22
2022-12-22T12:53:08.915Z,6.75
2022-12-22T12:56:03.889Z,8.73
2022-12-22T12:58:48.365Z,9.68
2022-12-22T13:01:18.386Z,10.63
2022-12-22T13:04:03.480Z,10.85
2022-12-22T13:06:49.269Z,12.30
2022-12-22T13:12:40.299Z,10.73
2022-12-22T13:15:35.465Z,12.05
2022-12-22T13:18:09.665Z,12.38
2022-12-22T13:20:37.733Z,11.48
2022-12-22T13:23:12.266Z,10.93
2022-12-22T13:25:49.961Z,11.68
2022-12-22T13:28:18.939Z,13.65
2022-12-22T13:30:49.222Z,11.55
2022-12-22T13:33:20.908Z,11.60
2022-12-22T13:35:54.919Z,12.15
2022-12-22T13:38:32.272Z,12.05
2022-12-22T13:41:03.407Z,11.45
2022-12-22T13:43:33.087Z,12.45
2022-12-22T13:46:02.681Z,14.73
2022-12-22T13:48:43.922Z,13.93
2022-12-22T13:51:20.157Z,12.43
2022-12-22T13:54:11.999Z,14.20
2022-12-22T13:56:46.473Z,13.95
2022-12-22T13:59:26.184Z,14.30
2022-12-22T14:02:00.571Z,13.75
2022-12-22T14:04:29.804Z,15.68
2022-12-22T14:06:57.509Z,15.43
2022-12-22T14:09:27.073Z,15.38
2022-12-22T14:11:57.004Z,16.38
2022-12-22T14:14:28.175Z,16.50
2022-12-22T14:17:00.646Z,18.15
2022-12-22T14:19:36.936Z,15.90
2022-12-22T14:22:08.572Z,17.38
2022-12-22T14:24:43.094Z,17.67
2022-12-22T14:27:31.165Z,17.45
2022-12-22T14:30:00.826Z,17.90
2022-12-22T14:32:52.355Z,18.10
2022-12-22T14:35:21.387Z,18.73
2022-12-22T14:37:48.605Z,17.58
2022-12-22T14:40:35.936Z,16.27
2022-12-22T14:43:23.955Z,16.92
2022-12-22T14:45:52.473Z,17.48
2022-12-22T14:48:45.419Z,17.17
2022-12-22T14:51:17.784Z,17.42
2022-12-22T14:53:51.207Z,17.90
2022-12-22T14:56:19.122Z,19.17
2022-12-22T14:58:47.410Z,18.75
2022-12-22T15:01:25.133Z,18.20
2022-12-22T15:04:02.259Z,18.90
2022-12-22T15:06:29.388Z,18.98
2022-12-22T15:09:12.137Z,18.48
2022-12-22T15:11:44.886Z,20.33
2022-12-22T15:14:16.471Z,18.10
2022-12-22T15:16:44.888Z,19.55
2022-12-22T15:19:17.702Z,20.42
2022-12-22T15:21:44.708Z,18.53
2022-12-22T15:24:15.561Z,20.20
2022-12-22T15:26:44.187Z,18.90
2022-12-22T15:29:11.958Z,20.13
2022-12-22T15:31:40.285Z,20.10
2022-12-22T15:34:15.116Z,19.95
2022-12-22T15:36:42.840Z,20.65
2022-12-22T15:39:15.605Z,19.95
2022-12-22T15:41:44.328Z,21.05
2022-12-22T15:44:12.854Z,20.55
2022-12-22T15:46:43.146Z,23.10
2022-12-22T15:49:18.116Z,21.67
2022-12-22T15:51:50.129Z,23.27
2022-12-22T15:54:18.243Z,23.60
2022-12-22T15:56:46.341Z,22.17
2022-12-22T15:59:22.479Z,23.30
2022-12-22T16:01:56.505Z,23.52
2022-12-22T16:04:28.194Z,23.42
2022-12-22T16:06:56.318Z,25.08
2022-12-22T16:09:27.545Z,23.83
2022-12-22T16:11:55.117Z,25.15
2022-12-22T16:14:22.750Z,23.30
2022-12-22T16:16:50.190Z,25.23
2022-12-22T16:19:18.344Z,25.25
2022-12-22T16:21:48.191Z,25.08
2022-12-22T16:24:26.522Z,23.85
2022-12-22T16:26:56.904Z,25.15
2022-12-22T16:29:25.003Z,24.13
2022-12-22T16:31:52.435Z,24.88
2022-12-22T16:34:19.626Z,24.58
2022-12-22T16:36:46.721Z,24.88
2022-12-22T16:39:13.808Z,24.65
2022-12-22T16:41:43.506Z,24.33
2022-12-22T16:44:22.588Z,24.52
2022-12-22T16:46:49.969Z,25.10
2022-12-22T16:49:26.134Z,25.88
2022-12-22T16:51:55.147Z,24.17
2022-12-22T16:54:22.293Z,23.50
2022-12-22T16:56:51.562Z,25.35
2022-12-22T16:59:18.847Z,23.55
2022-12-22T17:01:52.478Z,24.08
2022-12-22T17:04:28.396Z,24.17
2022-12-22T17:06:58.335Z,22.33
2022-12-22T17:09:31.106Z,23.60
2022-12-22T17:11:59.390Z,23.90
2022-12-22T17:14:31.461Z,24.05
2022-12-22T17:17:01.498Z,24.27
2022-12-22T17:19:28.734Z,23.73
2022-12-22T17:21:58.663Z,23.75
2022-12-22T17:24:28.649Z,23.65
2022-12-22T17:27:04.918Z,22.08
2022-12-22T17:29:35.568Z,20.77
2022-12-22T17:32:02.799Z,20.08
2022-12-22T17:34:30.002Z,20.75
2022-12-22T17:36:59.255Z,21.63
2022-12-22T17:39:26.413Z,19.63
2022-12-22T17:41:57.297Z,21.15
2022-12-22T17:44:27.410Z,20.15
2022-12-22T17:46:54.716Z,21.20
2022-12-22T17:49:22.759Z,19.80
2022-12-22T17:51:50.404Z,19.48
2022-12-22T17:54:26.251Z,19.58
2022-12-22T17:57:01.833Z,21.73
2022-12-22T17:59:29.271Z,19.13
2022-12-22T18:01:56.697Z,19.17
2022-12-22T18:04:23.886Z,20.90
2022-12-22T18:06:51.155Z,19.38
2022-12-22T18:09:25.090Z,18.42
2022-12-22T18:11:53.658Z,19.42
2022-12-22T18:14:22.252Z,19.20
2022-12-22T18:16:49.498Z,17.75
2022-12-22T18:19:16.626Z,18.67
2022-12-22T18:21:44.199Z,18.30
2022-12-22T18:24:19.338Z,17.60
2022-12-22T18:26:47.192Z,16.67
2022-12-22T18:29:15.746Z,17.38
2022-12-22T18:31:44.119Z,17.13
2022-12-22T18:34:12.222Z,17.17
2022-12-22T18:36:42.406Z,15.63
2022-12-22T18:39:18.804Z,18.48
2022-12-22T18:41:46.485Z,22.92
2022-12-22T18:44:17.679Z,34.45
2022-12-22T18:46:45.432Z,21.67
2022-12-22T18:49:12.746Z,22.00
2022-12-22T18:51:39.896Z,18.55
2022-12-22T18:54:22.714Z,17.45
2022-12-22T18:56:49.815Z,15.52
2022-12-22T18:59:24.810Z,16.55
2022-12-22T19:01:52.585Z,17.70
2022-12-22T19:04:19.968Z,15.73
2022-12-22T19:06:47.061Z,16.05
2022-12-22T19:09:15.418Z,15.10
2022-12-22T19:11:43.343Z,16.13
2022-12-22T19:14:18.252Z,14.73
2022-12-22T19:16:46.008Z,14.15
2022-12-22T19:19:18.645Z,15.05
2022-12-22T19:21:48.572Z,15.13
2022-12-22T19:24:18.496Z,15.35
2022-12-22T19:26:45.611Z,15.63
2022-12-22T19:29:14.829Z,14.68
2022-12-22T19:31:43.298Z,14.63
2022-12-22T19:34:16.568Z,14.77
2022-12-22T19:36:43.646Z,15.50
2022-12-22T19:39:11.217Z,15.40
2022-12-22T19:41:51.289Z,15.15
2022-12-22T19:44:18.414Z,17.55
2022-12-22T19:46:45.919Z,16.38
2022-12-22T19:49:19.293Z,17.95
2022-12-22T19:51:46.399Z,15.52
2022-12-22T19:54:14.111Z,17.38
2022-12-22T19:56:42.918Z,17.35
2022-12-22T19:59:28.191Z,17.75
2022-12-22T20:01:57.384Z,17.63
2022-12-22T20:04:24.559Z,17.05
2022-12-22T20:06:51.657Z,19.13
2022-12-22T20:09:18.738Z,18.35
2022-12-22T20:11:46.221Z,18.33
2022-12-22T20:14:19.366Z,20.15
2022-12-22T20:16:46.455Z,21.60
2022-12-22T20:19:14.399Z,19.63
2022-12-22T20:21:41.987Z,21.48
2022-12-22T20:24:19.596Z,22.10
2022-12-22T20:26:52.012Z,21.48
2022-12-22T20:29:21.673Z,20.45
2022-12-22T20:31:48.785Z,23.50
2022-12-22T20:34:15.909Z,23.52
2022-12-22T20:36:43.384Z,23.90
2022-12-22T20:39:13.518Z,23.27
2022-12-22T20:41:43.352Z,22.92
2022-12-22T20:44:12.758Z,22.50
2022-12-22T20:46:40.781Z,22.50
2022-12-22T20:49:15.038Z,23.17
2022-12-22T20:51:42.129Z,23.00
2022-12-22T20:54:14.125Z,20.85
2022-12-22T20:56:44.091Z,20.02
2022-12-22T20:59:17.608Z,19.50
2022-12-22T21:01:46.569Z,24.63
2022-12-22T21:04:15.818Z,20.88
2022-12-22T21:06:49.045Z,18.23
2022-12-22T21:09:16.664Z,18.48
2022-12-22T21:11:44.201Z,17.35
2022-12-22T21:14:12.667Z,18.27
2022-12-22T21:16:41.567Z,17.63
2022-12-22T21:19:15.078Z,16.42
2022-12-22T21:21:42.141Z,17.70
2022-12-22T21:24:09.475Z,15.80
2022-12-22T21:26:43.656Z,15.50
2022-12-22T21:29:21.717Z,16.88
2022-12-22T21:31:48.828Z,15.60
2022-12-22T21:34:16.008Z,17.48
2022-12-22T21:36:45.787Z,16.90
2022-12-22T21:39:25.377Z,16.85
2022-12-22T21:42:03.091Z,16.42
2022-12-22T21:44:33.003Z,14.13
2022-12-22T21:47:00.601Z,14.43
2022-12-22T21:49:30.625Z,13.82
2022-12-22T21:51:57.678Z,14.98
2022-12-22T21:54:25.974Z,14.63
2022-12-22T21:56:54.303Z,15.75
2022-12-22T21:59:22.113Z,12.95
2022-12-22T22:01:52.415Z,12.63
2022-12-22T22:04:20.990Z,12.48
2022-12-22T22:06:48.606Z,11.48
2022-12-22T22:09:15.733Z,11.60
2022-12-22T22:12:01.532Z,11.57
2022-12-22T22:14:28.676Z,11.80
2022-12-22T22:16:55.869Z,10.93
2022-12-22T22:19:22.924Z,10.25
2022-12-22T22:21:50.016Z,10.43
2022-12-22T22:24:17.166Z,10.27
2022-12-22T22:26:45.980Z,10.48
2022-12-22T22:29:13.378Z,10.60
2022-12-22T22:31:41.503Z,10.38
2022-12-22T22:34:10.015Z,9.70
2022-12-22T22:36:37.325Z,8.45
2022-12-22T22:39:04.550Z,8.20
2022-12-22T22:41:39.084Z,8.30
2022-12-22T22:46:34.341Z,7.70
2022-12-22T22:49:01.445Z,7.70
2022-12-22T22:51:28.652Z,7.25
2022-12-22T22:53:55.729Z,6.85
2022-12-22T22:56:22.828Z,7.35
2022-12-22T22:58:49.914Z,7.38
2022-12-22T23:01:16.997Z,7.25
2022-12-22T23:03:44.222Z,7.70
2022-12-22T23:06:13.163Z,7.85
2022-12-22T23:08:40.789Z,7.00
2022-12-22T23:11:13.705Z,7.35
2022-12-22T23:13:41.189Z,7.78
2022-12-22T23:16:08.462Z,7.10
2022-12-22T23:18:37.003Z,7.20
2022-12-22T23:21:07.541Z,7.75
2022-12-22T23:23:35.458Z,7.85
2022-12-22T23:26:03.235Z,7.50
2022-12-22T23:28:30.294Z,7.55
2022-12-22T23:30:57.434Z,7.53
2022-12-22T23:33:24.795Z,8.93
2022-12-22T23:35:52.511Z,8.10
2022-12-22T23:38:20.991Z,9.25
2022-12-22T23:40:53.692Z,8.55
2022-12-22T23:43:21.942Z,10.45
2022-12-22T23:45:49.228Z,9.40
2022-12-22T23:48:16.428Z,9.45
2022-12-22T23:50:47.434Z,9.68
2022-12-22T23:53:15.615Z,10.57
2022-12-22T23:55:46.256Z,11.07
2022-12-22T23:58:14.777Z,10.68
